Time,TemperatureF,DewpointF,PressureIn,WindDirection,WindDirectionDegrees,WindSpeedMPH,WindSpeedGustMPH,Humidity,HourlyPrecipIn,Conditions,Clouds,dailyrainin,SolarRadiationWatts/m^2,SoftwareType,DateUTC
2013-05-20 00:21:00,42.0,29.0,-100.00,ENE,78,2.0,6.0,59,0.00,,,0.00,0.000000,,2013-05-20 06:21:00,
2013-05-20 00:32:00,42.0,29.0,-100.00,ENE,78,2.0,6.0,59,0.00,,,0.00,0.000000,,2013-05-20 06:32:00,
2013-05-20 00:41:00,42.0,29.0,-100.00,ENE,78,2.0,6.0,59,0.00,,,0.00,0.000000,,2013-05-20 06:41:00,
2013-05-20 01:12:00,39.0,30.0,-100.00,South,175,5.0,6.0,69,0.00,,,0.00,0.000000,,2013-05-20 07:12:00,
2013-05-20 01:21:00,39.0,30.0,-100.00,South,175,5.0,6.0,69,0.00,,,0.00,0.000000,,2013-05-20 07:21:00,
2013-05-20 01:32:00,39.0,30.0,-100.00,South,175,5.0,6.0,69,0.00,,,0.00,0.000000,,2013-05-20 07:32:00,
2013-05-20 01:41:00,39.0,30.0,-100.00,South,175,5.0,6.0,69,0.00,,,0.00,0.000000,,2013-05-20 07:41:00,
2013-05-20 02:11:00,38.0,30.0,-100.00,SSE,167,4.0,8.0,72,0.00,,,0.00,0.000000,,2013-05-20 08:11:00,
2013-05-20 02:21:00,38.0,30.0,-100.00,SSE,167,4.0,8.0,72,0.00,,,0.00,0.000000,,2013-05-20 08:21:00,
2013-05-20 02:31:00,38.0,30.0,-100.00,SSE,167,4.0,8.0,72,0.00,,,0.00,0.000000,,2013-05-20 08:31:00,
2013-05-20 02:41:00,38.0,30.0,-100.00,SSE,167,4.0,8.0,72,0.00,,,0.00,0.000000,,2013-05-20 08:41:00,
2013-05-20 03:12:00,38.0,30.0,-100.00,South,184,5.0,9.0,72,0.00,,,0.00,0.000000,,2013-05-20 09:12:00,
2013-05-20 03:21:00,38.0,30.0,-100.00,South,184,5.0,9.0,72,0.00,,,0.00,0.000000,,2013-05-20 09:21:00,
2013-05-20 03:32:00,38.0,30.0,-100.00,South,184,5.0,9.0,72,0.00,,,0.00,0.000000,,2013-05-20 09:32:00,
2013-05-20 03:43:00,38.0,30.0,-100.00,South,184,5.0,9.0,72,0.00,,,0.00,0.000000,,2013-05-20 09:43:00,
2013-05-20 04:12:00,38.0,30.0,-100.00,WSW,248,3.0,5.0,72,0.00,,,0.00,0.000000,,2013-05-20 10:12:00,
2013-05-20 04:22:00,38.0,30.0,-100.00,WSW,248,3.0,5.0,72,0.00,,,0.00,0.000000,,2013-05-20 10:22:00,
2013-05-20 04:32:00,38.0,30.0,-100.00,WSW,248,3.0,5.0,72,0.00,,,0.00,0.000000,,2013-05-20 10:32:00,
2013-05-20 04:42:00,38.0,30.0,-100.00,WSW,248,3.0,5.0,72,0.00,,,0.00,0.000000,,2013-05-20 10:42:00,
2013-05-20 05:12:00,39.0,30.0,-100.00,SW,235,4.0,5.0,70,0.00,,,0.00,0.000000,,2013-05-20 11:12:00,
2013-05-20 05:21:00,39.0,30.0,-100.00,SW,235,4.0,5.0,70,0.00,,,0.00,0.000000,,2013-05-20 11:21:00,
2013-05-20 05:32:00,39.0,30.0,-100.00,SW,235,4.0,5.0,70,0.00,,,0.00,0.000000,,2013-05-20 11:32:00,
2013-05-20 05:41:00,39.0,30.0,-100.00,SW,235,4.0,5.0,70,0.00,,,0.00,0.000000,,2013-05-20 11:41:00,
2013-05-20 06:11:00,36.0,29.0,-100.00,WSW,256,1.0,4.0,76,0.00,,,0.00,0.000000,,2013-05-20 12:11:00,
2013-05-20 06:21:00,36.0,29.0,-100.00,WSW,256,1.0,4.0,76,0.00,,,0.00,0.000000,,2013-05-20 12:21:00,
2013-05-20 06:31:00,36.0,29.0,-100.00,WSW,256,1.0,4.0,76,0.00,,,0.00,0.000000,,2013-05-20 12:31:00,
2013-05-20 06:41:00,36.0,29.0,-100.00,WSW,256,1.0,4.0,76,0.00,,,0.00,0.000000,,2013-05-20 12:41:00,
2013-05-20 07:11:00,40.0,32.0,-100.00,SSW,201,3.0,4.0,74,0.00,,,0.00,28.000000,,2013-05-20 13:11:00,
2013-05-20 07:22:00,40.0,32.0,-100.00,SSW,201,3.0,4.0,74,0.00,,,0.00,28.000000,,2013-05-20 13:22:00,
2013-05-20 07:31:00,40.0,32.0,-100.00,SSW,201,3.0,4.0,74,0.00,,,0.00,28.000000,,2013-05-20 13:31:00,
2013-05-20 07:41:00,40.0,32.0,-100.00,SSW,201,3.0,4.0,74,0.00,,,0.00,28.000000,,2013-05-20 13:41:00,
2013-05-20 08:11:00,44.0,33.0,-100.00,ESE,118,0.0,4.0,66,0.00,,,0.00,119.000000,,2013-05-20 14:11:00,
2013-05-20 08:22:00,44.0,33.0,-100.00,ESE,118,0.0,4.0,66,0.00,,,0.00,119.000000,,2013-05-20 14:22:00,
2013-05-20 08:31:00,44.0,33.0,-100.00,ESE,118,0.0,4.0,66,0.00,,,0.00,119.000000,,2013-05-20 14:31:00,
2013-05-20 08:41:00,44.0,33.0,-100.00,ESE,118,0.0,4.0,66,0.00,,,0.00,119.000000,,2013-05-20 14:41:00,
2013-05-20 09:11:00,50.0,33.0,-100.00,NE,34,4.0,7.0,52,0.00,,,0.00,387.000000,,2013-05-20 15:11:00,
2013-05-20 09:21:00,50.0,33.0,-100.00,NE,34,4.0,7.0,52,0.00,,,0.00,387.000000,,2013-05-20 15:21:00,
2013-05-20 09:33:00,50.0,33.0,-100.00,NE,34,4.0,7.0,52,0.00,,,0.00,387.000000,,2013-05-20 15:33:00,
2013-05-20 09:42:00,50.0,33.0,-100.00,NE,34,4.0,7.0,52,0.00,,,0.00,387.000000,,2013-05-20 15:42:00,
2013-05-20 10:12:00,51.0,34.0,-100.00,North,8,6.0,12.0,51,0.00,,,0.00,539.000000,,2013-05-20 16:12:00,
2013-05-20 10:22:00,51.0,34.0,-100.00,North,8,6.0,12.0,51,0.00,,,0.00,539.000000,,2013-05-20 16:22:00,
2013-05-20 10:33:00,51.0,34.0,-100.00,North,8,6.0,12.0,51,0.00,,,0.00,539.000000,,2013-05-20 16:33:00,
2013-05-20 10:42:00,51.0,34.0,-100.00,North,8,6.0,12.0,51,0.00,,,0.00,539.000000,,2013-05-20 16:42:00,
2013-05-20 11:12:00,54.0,33.0,-100.00,North,352,6.0,12.0,45,0.00,,,0.00,724.000000,,2013-05-20 17:12:00,
2013-05-20 11:22:00,54.0,33.0,-100.00,North,352,6.0,12.0,45,0.00,,,0.00,724.000000,,2013-05-20 17:22:00,
2013-05-20 11:32:00,54.0,33.0,-100.00,North,352,6.0,12.0,45,0.00,,,0.00,724.000000,,2013-05-20 17:32:00,
2013-05-20 11:45:00,54.0,33.0,-100.00,North,352,6.0,12.0,45,0.00,,,0.00,724.000000,,2013-05-20 17:45:00,
2013-05-20 12:12:00,57.0,34.0,-100.00,North,353,6.0,14.0,41,0.00,,,0.00,790.000000,,2013-05-20 18:12:00,
2013-05-20 12:23:00,57.0,34.0,-100.00,North,353,6.0,14.0,41,0.00,,,0.00,790.000000,,2013-05-20 18:23:00,
2013-05-20 12:32:00,57.0,34.0,-100.00,North,353,6.0,14.0,41,0.00,,,0.00,790.000000,,2013-05-20 18:32:00,
2013-05-20 12:41:00,57.0,34.0,-100.00,North,353,6.0,14.0,41,0.00,,,0.00,790.000000,,2013-05-20 18:41:00,
2013-05-20 13:21:00,57.0,32.0,-100.00,North,7,9.0,16.0,39,0.00,,,0.00,868.000000,,2013-05-20 19:21:00,
2013-05-20 13:32:00,57.0,32.0,-100.00,North,7,9.0,16.0,39,0.00,,,0.00,868.000000,,2013-05-20 19:32:00,
2013-05-20 13:41:00,57.0,32.0,-100.00,North,7,9.0,16.0,39,0.00,,,0.00,868.000000,,2013-05-20 19:41:00,
2013-05-20 14:12:00,55.0,32.0,-100.00,NNW,327,11.0,19.0,41,0.00,,,0.00,620.000000,,2013-05-20 20:12:00,
2013-05-20 14:21:00,55.0,32.0,-100.00,NNW,327,11.0,19.0,41,0.00,,,0.00,620.000000,,2013-05-20 20:21:00,
2013-05-20 14:32:00,55.0,32.0,-100.00,NNW,327,11.0,19.0,41,0.00,,,0.00,620.000000,,2013-05-20 20:32:00,
2013-05-20 14:42:00,55.0,32.0,-100.00,NNW,327,11.0,19.0,41,0.00,,,0.00,620.000000,,2013-05-20 20:42:00,
2013-05-20 15:21:00,56.0,37.0,-100.00,NNE,25,8.0,19.0,48,0.00,,,0.00,617.000000,,2013-05-20 21:21:00,
2013-05-20 15:32:00,56.0,37.0,-100.00,NNE,25,8.0,19.0,48,0.00,,,0.00,617.000000,,2013-05-20 21:32:00,
2013-05-20 15:43:00,56.0,37.0,-100.00,NNE,25,8.0,19.0,48,0.00,,,0.00,617.000000,,2013-05-20 21:43:00,
2013-05-20 16:12:00,58.0,36.0,-100.00,WNW,293,6.0,19.0,43,0.00,,,0.00,638.000000,,2013-05-20 22:12:00,
2013-05-20 16:23:00,58.0,36.0,-100.00,WNW,293,6.0,19.0,43,0.00,,,0.00,638.000000,,2013-05-20 22:23:00,
2013-05-20 16:33:00,58.0,36.0,-100.00,WNW,293,6.0,19.0,43,0.00,,,0.00,638.000000,,2013-05-20 22:33:00,
2013-05-20 16:42:00,58.0,36.0,-100.00,WNW,293,6.0,19.0,43,0.00,,,0.00,638.000000,,2013-05-20 22:42:00,
2013-05-20 17:12:00,53.0,35.0,-100.00,NNE,20,13.0,21.0,50,0.00,,,0.00,553.000000,,2013-05-20 23:12:00,
2013-05-20 17:22:00,53.0,35.0,-100.00,NNE,20,13.0,21.0,50,0.00,,,0.00,553.000000,,2013-05-20 23:22:00,
2013-05-20 17:32:00,53.0,35.0,-100.00,NNE,20,13.0,21.0,50,0.00,,,0.00,553.000000,,2013-05-20 23:32:00,
2013-05-20 17:42:00,53.0,35.0,-100.00,NNE,20,13.0,21.0,50,0.00,,,0.00,553.000000,,2013-05-20 23:42:00,
2013-05-20 18:11:00,56.0,37.0,-100.00,East,80,7.0,16.0,48,0.00,,,0.00,585.000000,,2013-05-21 00:11:00,
2013-05-20 18:21:00,56.0,37.0,-100.00,East,80,7.0,16.0,48,0.00,,,0.00,585.000000,,2013-05-21 00:21:00,
2013-05-20 18:31:00,56.0,37.0,-100.00,East,80,7.0,16.0,48,0.00,,,0.00,585.000000,,2013-05-21 00:31:00,
2013-05-20 18:41:00,56.0,37.0,-100.00,East,80,7.0,16.0,48,0.00,,,0.00,585.000000,,2013-05-21 00:41:00,
2013-05-20 19:11:00,56.0,33.0,-100.00,North,4,4.0,12.0,42,0.00,,,0.00,453.000000,,2013-05-21 01:11:00,
2013-05-20 19:21:00,56.0,33.0,-100.00,North,4,4.0,12.0,42,0.00,,,0.00,453.000000,,2013-05-21 01:21:00,
2013-05-20 19:32:00,56.0,33.0,-100.00,North,4,4.0,12.0,42,0.00,,,0.00,453.000000,,2013-05-21 01:32:00,
2013-05-20 19:42:00,56.0,33.0,-100.00,North,4,4.0,12.0,42,0.00,,,0.00,453.000000,,2013-05-21 01:42:00,
2013-05-20 20:11:00,53.0,34.0,-100.00,North,8,7.0,12.0,48,0.00,,,0.00,206.000000,,2013-05-21 02:11:00,
2013-05-20 20:21:00,53.0,34.0,-100.00,North,8,7.0,12.0,48,0.00,,,0.00,206.000000,,2013-05-21 02:21:00,
2013-05-20 20:32:00,53.0,34.0,-100.00,North,8,7.0,12.0,48,0.00,,,0.00,206.000000,,2013-05-21 02:32:00,
2013-05-20 20:41:00,53.0,34.0,-100.00,North,8,7.0,12.0,48,0.00,,,0.00,206.000000,,2013-05-21 02:41:00,
2013-05-20 21:11:00,50.0,31.0,-100.00,NNE,29,3.0,11.0,48,0.00,,,0.00,44.000000,,2013-05-21 03:11:00,
2013-05-20 21:21:00,50.0,31.0,-100.00,NNE,29,3.0,11.0,48,0.00,,,0.00,44.000000,,2013-05-21 03:21:00,
2013-05-20 21:33:00,50.0,31.0,-100.00,NNE,29,3.0,11.0,48,0.00,,,0.00,44.000000,,2013-05-21 03:33:00,
2013-05-20 21:42:00,50.0,31.0,-100.00,NNE,29,3.0,11.0,48,0.00,,,0.00,44.000000,,2013-05-21 03:42:00,
2013-05-20 22:12:00,47.0,33.0,-100.00,SSW,193,0.0,4.0,57,0.00,,,0.00,0.000000,,2013-05-21 04:12:00,
2013-05-20 22:23:00,47.0,33.0,-100.00,SSW,193,0.0,4.0,57,0.00,,,0.00,0.000000,,2013-05-21 04:23:00,
2013-05-20 22:33:00,47.0,33.0,-100.00,SSW,193,0.0,4.0,57,0.00,,,0.00,0.000000,,2013-05-21 04:33:00,
2013-05-20 22:42:00,47.0,33.0,-100.00,SSW,193,0.0,4.0,57,0.00,,,0.00,0.000000,,2013-05-21 04:42:00,
2013-05-20 23:12:00,46.0,33.0,-100.00,NE,51,1.0,5.0,61,0.00,,,0.00,0.000000,,2013-05-21 05:12:00,
2013-05-20 23:21:00,46.0,33.0,-100.00,NE,51,1.0,5.0,61,0.00,,,0.00,0.000000,,2013-05-21 05:21:00,
2013-05-20 23:32:00,46.0,33.0,-100.00,NE,51,1.0,5.0,61,0.00,,,0.00,0.000000,,2013-05-21 05:32:00,
2013-05-20 23:42:00,46.0,33.0,-100.00,NE,51,1.0,5.0,61,0.00,,,0.00,0.000000,,2013-05-21 05:42:00,